Time;durP1;ratioP1;P1;durP2;ratioP2;P2;SDS_P1;SDS_P2;PMS_P1;PMS_P2;Temp;Humidity;BMP_temperature;BMP_pressure;BME280_temperature;BME280_humidity;BME280_pressure;Samples;Min_cycle;Max_cycle;Signal;HPM_P1;HPM_P2
2023/12/23 00:01:05;;;;;;;16.40;12.10;;;;;;;6.42;100.00;97737.39;109319;1253;60175;-67
2023/12/23 00:03:33;;;;;;;17.00;12.00;;;;;;;6.41;100.00;97732.95;109382;1253;74743;-66
2023/12/23 00:06:01;;;;;;;18.00;13.20;;;;;;;6.38;100.00;97733.66;109359;1253;67350;-65
2023/12/23 00:08:28;;;;;;;17.30;13.10;;;;;;;6.37;100.00;97730.42;109311;1252;72451;-66
2023/12/23 00:10:57;;;;;;;17.30;12.40;;;;;;;6.39;100.00;97726.37;109255;1253;60456;-67
2023/12/23 00:13:24;;;;;;;17.60;12.20;;;;;;;6.38;100.00;97723.60;109319;1252;60203;-66
2023/12/23 00:15:52;;;;;;;16.30;12.10;;;;;;;6.37;100.00;97720.70;109328;1253;74792;-67
2023/12/23 00:18:20;;;;;;;15.90;12.20;;;;;;;6.38;100.00;97719.78;109461;1251;65748;-66
2023/12/23 00:20:48;;;;;;;16.00;12.20;;;;;;;6.34;100.00;97720.82;109335;1252;72790;-66
2023/12/23 00:23:16;;;;;;;16.20;11.50;;;;;;;6.35;100.00;97718.05;109311;1253;61213;-67
2023/12/23 00:25:43;;;;;;;17.80;11.90;;;;;;;6.34;100.00;97718.91;109331;1252;59497;-66
2023/12/23 00:28:11;;;;;;;15.80;11.20;;;;;;;6.37;100.00;97714.17;109344;1253;73770;-66
2023/12/23 00:30:38;;;;;;;15.00;11.60;;;;;;;6.38;100.00;97711.41;109392;1252;66791;-66
2023/12/23 00:33:06;;;;;;;16.30;12.80;;;;;;;6.38;100.00;97707.88;109282;1253;72730;-67
2023/12/23 00:35:34;;;;;;;16.10;11.90;;;;;;;6.39;100.00;97703.08;109302;1252;61433;-67
2023/12/23 00:38:01;;;;;;;16.40;12.50;;;;;;;6.39;100.00;97697.23;109354;1252;60077;-67
2023/12/23 00:40:29;;;;;;;15.70;11.30;;;;;;;6.40;100.00;97695.41;109289;1253;73645;-66
2023/12/23 00:42:56;;;;;;;16.10;13.10;;;;;;;6.41;100.00;97693.43;109452;1251;67188;-66
2023/12/23 00:45:25;;;;;;;16.10;11.60;;;;;;;6.40;100.00;97691.83;109291;1253;73064;-67
2023/12/23 00:47:54;;;;;;;15.70;12.00;;;;;;;6.38;100.00;97690.65;109202;1253;60767;-66
2023/12/23 00:50:23;;;;;;;15.60;11.60;;;;;;;6.36;100.00;97687.70;109374;1253;58955;-66
2023/12/23 00:52:50;;;;;;;14.40;11.00;;;;;;;6.35;100.00;97683.94;109343;1252;73281;-66
2023/12/23 00:55:19;;;;;;;19.50;12.60;;;;;;;6.34;100.00;97676.38;109326;1252;67522;-66
2023/12/23 00:57:46;;;;;;;14.50;11.80;;;;;;;6.33;100.00;97676.96;109387;1253;71464;-66
2023/12/23 01:00:14;;;;;;;13.90;10.40;;;;;;;6.33;100.00;97672.79;109214;1252;61782;-66
2023/12/23 01:02:42;;;;;;;13.70;10.80;;;;;;;6.34;100.00;97669.12;109352;1253;60184;-66
2023/12/23 01:05:10;;;;;;;12.60;9.90;;;;;;;6.35;100.00;97665.84;109316;1252;74764;-67
2023/12/23 01:07:38;;;;;;;14.80;11.30;;;;;;;6.36;100.00;97662.43;109385;1253;66916;-66
2023/12/23 01:10:06;;;;;;;13.20;10.60;;;;;;;6.35;100.00;97660.14;109220;1253;72785;-66
2023/12/23 01:12:34;;;;;;;14.60;10.50;;;;;;;6.36;100.00;97656.50;109327;1252;60493;-66
2023/12/23 01:15:02;;;;;;;13.40;10.40;;;;;;;6.36;100.00;97652.50;109262;1253;59314;-66
2023/12/23 01:17:30;;;;;;;12.30;9.60;;;;;;;6.34;100.00;97647.09;109340;1252;75030;-66
2023/12/23 01:19:57;;;;;;;14.80;10.30;;;;;;;6.33;100.00;97650.18;109370;1252;67032;-66
2023/12/23 01:22:25;;;;;;;13.10;10.30;;;;;;;6.34;100.00;97646.73;109351;1252;72754;-66
2023/12/23 01:24:53;;;;;;;12.00;9.10;;;;;;;6.34;100.00;97647.09;109363;1253;62322;-65
2023/12/23 01:27:20;;;;;;;13.50;10.10;;;;;;;6.35;100.00;97645.14;109266;1253;60407;-66
2023/12/23 01:29:50;;;;;;;13.00;9.70;;;;;;;6.36;100.00;97642.62;109313;1253;74701;-66
2023/12/23 01:32:17;;;;;;;12.60;9.90;;;;;;;6.37;100.00;97632.77;109353;1253;67118;-66
2023/12/23 01:34:45;;;;;;;12.40;10.10;;;;;;;6.37;100.00;97627.33;109321;1253;72721;-66
2023/12/23 01:37:13;;;;;;;14.50;10.50;;;;;;;6.36;100.00;97625.34;109325;1252;61765;-66
2023/12/23 01:39:41;;;;;;;12.40;9.20;;;;;;;6.37;100.00;97623.15;109415;1252;60555;-66
2023/12/23 01:42:08;;;;;;;12.10;8.90;;;;;;;6.37;100.00;97621.76;109321;1253;74801;-66
2023/12/23 01:44:36;;;;;;;11.40;9.00;;;;;;;6.37;100.00;97617.48;109262;1252;67503;-66
2023/12/23 01:47:04;;;;;;;11.60;8.90;;;;;;;6.37;100.00;97611.61;109345;1253;72743;-65
2023/12/23 01:49:31;;;;;;;11.80;8.50;;;;;;;6.37;100.00;97612.64;109222;1253;61730;-66
2023/12/23 01:51:59;;;;;;;12.80;9.30;;;;;;;6.37;100.00;97609.96;109374;1253;59312;-66
2023/12/23 01:54:27;;;;;;;11.00;7.90;;;;;;;6.37;100.00;97604.48;109393;1253;73423;-66
2023/12/23 01:56:54;;;;;;;10.50;8.10;;;;;;;6.36;100.00;97598.39;109282;1253;66973;-66
2023/12/23 01:59:22;;;;;;;10.90;8.40;;;;;;;6.37;100.00;97594.11;109326;1253;71784;-65
2023/12/23 02:01:49;;;;;;;10.20;6.70;;;;;;;6.37;100.00;97591.14;109321;1255;60806;-65
2023/12/23 02:04:18;;;;;;;9.70;7.30;;;;;;;6.38;100.00;97590.16;109367;1253;60081;-65
2023/12/23 02:06:45;;;;;;;11.00;8.40;;;;;;;6.38;100.00;97589.13;109340;1256;74139;-64
2023/12/23 02:09:13;;;;;;;9.30;7.50;;;;;;;6.39;100.00;97592.30;109352;1253;65860;-65
2023/12/23 02:11:49;;;;;;;10.00;8.00;;;;;;;6.41;100.00;97591.31;109201;1252;72785;-66
2023/12/23 02:14:35;;;;;;;10.90;7.80;;;;;;;6.43;100.00;97590.84;109250;1252;60526;-65
2023/12/23 02:17:04;;;;;;;11.80;8.20;;;;;;;6.42;100.00;97586.64;109348;1252;58939;-66
2023/12/23 02:19:32;;;;;;;9.30;7.10;;;;;;;6.42;100.00;97579.85;109282;1252;75251;-65
2023/12/23 02:21:59;;;;;;;9.80;7.40;;;;;;;6.42;100.00;97583.84;109363;1252;67023;-65
2023/12/23 02:24:27;;;;;;;12.00;7.80;;;;;;;6.44;100.00;97585.23;109222;1253;71467;-65
2023/12/23 02:26:58;;;;;;;9.90;7.70;;;;;;;6.44;100.00;97579.85;109116;1252;61806;-65
2023/12/23 02:29:26;;;;;;;9.40;7.10;;;;;;;6.43;100.00;97574.04;109147;1253;58928;-65
2023/12/23 02:31:54;;;;;;;11.50;7.80;;;;;;;6.44;100.00;97573.56;109173;1253;74724;-65
2023/12/23 02:34:22;;;;;;;9.70;7.10;;;;;;;6.44;100.00;97572.23;109235;1252;65790;-65
2023/12/23 02:36:49;;;;;;;9.10;6.80;;;;;;;6.45;100.00;97572.23;109328;1253;72750;-65
2023/12/23 02:39:17;;;;;;;9.20;6.70;;;;;;;6.46;100.00;97571.98;109363;1252;60459;-66
2023/12/23 02:41:44;;;;;;;9.70;6.70;;;;;;;6.44;100.00;97572.17;109404;1252;60132;-65
2023/12/23 02:44:12;;;;;;;8.10;6.30;;;;;;;6.44;100.00;97566.16;109349;1252;75676;-65
2023/12/23 02:46:40;;;;;;;8.70;6.80;;;;;;;6.43;100.00;97570.09;109258;1253;67378;-65
2023/12/23 02:49:08;;;;;;;9.40;6.50;;;;;;;6.43;100.00;97573.24;109247;1253;72780;-65
2023/12/23 02:51:35;;;;;;;9.40;7.10;;;;;;;6.42;100.00;97572.10;109301;1253;62266;-65
2023/12/23 02:54:03;;;;;;;14.60;7.90;;;;;;;6.41;100.00;97574.88;109213;1253;59214;-65
2023/12/23 02:56:31;;;;;;;10.00;7.40;;;;;;;6.41;100.00;97573.61;109365;1252;73533;-65
2023/12/23 02:58:58;;;;;;;8.50;6.60;;;;;;;6.42;100.00;97572.96;109429;1252;67003;-65
2023/12/23 03:01:26;;;;;;;11.80;7.10;;;;;;;6.41;100.00;97568.04;109278;1253;72779;-66
2023/12/23 03:03:54;;;;;;;9.70;6.70;;;;;;;6.42;100.00;97570.68;109426;1252;60609;-65
2023/12/23 03:06:21;;;;;;;10.60;7.00;;;;;;;6.42;100.00;97569.72;109358;1253;60139;-65
2023/12/23 03:08:49;;;;;;;8.40;6.20;;;;;;;6.42;100.00;97566.77;109375;1253;74789;-65
2023/12/23 03:11:17;;;;;;;9.50;7.00;;;;;;;6.42;100.00;97565.67;109166;1253;66965;-66
2023/12/23 03:13:45;;;;;;;8.70;6.30;;;;;;;6.42;100.00;97565.83;109339;1253;72693;-66
2023/12/23 03:16:16;;;;;;;11.50;6.70;;;;;;;6.42;100.00;97564.23;109394;1253;58910;-66
2023/12/23 03:18:44;;;;;;;;;;;;;;;6.42;100.00;97561.80;109399;1252;60109;-66
2023/12/23 03:21:13;;;;;;;9.70;6.40;;;;;;;6.42;100.00;97564.02;109329;1253;74730;-66
2023/12/23 03:23:40;;;;;;;9.10;6.60;;;;;;;6.41;100.00;97559.19;109420;1253;67067;-66
2023/12/23 03:26:09;;;;;;;8.80;6.60;;;;;;;6.40;100.00;97564.64;109228;1253;72739;-66
2023/12/23 03:28:37;;;;;;;8.40;5.60;;;;;;;6.41;100.00;97567.52;109396;1251;60663;-66
2023/12/23 03:31:04;;;;;;;8.40;5.40;;;;;;;6.40;100.00;97568.35;109339;1253;59541;-66
2023/12/23 03:33:32;;;;;;;9.10;5.00;;;;;;;6.40;100.00;97567.52;109389;1252;74766;-66
2023/12/23 03:36:00;;;;;;;6.70;4.40;;;;;;;6.39;100.00;97564.62;109394;1252;67545;-65
2023/12/23 03:38:27;;;;;;;6.50;3.40;;;;;;;6.38;100.00;97562.73;109365;1253;72745;-66
2023/12/23 03:40:55;;;;;;;5.40;3.30;;;;;;;6.38;100.00;97562.79;109349;1252;62309;-66
2023/12/23 03:43:22;;;;;;;5.10;3.50;;;;;;;6.38;100.00;97558.85;109379;1252;60081;-66
2023/12/23 03:45:50;;;;;;;3.90;2.40;;;;;;;6.37;100.00;97557.69;109405;1253;72789;-66
2023/12/23 03:48:17;;;;;;;5.20;2.60;;;;;;;6.37;100.00;97556.96;109457;1252;64661;-65
2023/12/23 03:50:45;;;;;;;4.80;2.60;;;;;;;6.37;100.00;97552.77;109339;1253;72734;-67
2023/12/23 03:53:14;;;;;;;4.90;2.40;;;;;;;6.36;100.00;97552.50;109354;1253;59054;-66
2023/12/23 03:55:42;;;;;;;5.00;2.70;;;;;;;6.35;100.00;97554.17;109394;1253;59039;-66
2023/12/23 03:58:10;;;;;;;4.80;2.30;;;;;;;6.35;100.00;97561.11;109438;1253;75160;-66
2023/12/23 04:00:37;;;;;;;3.80;2.40;;;;;;;6.35;100.00;97564.92;109360;1253;66953;-65
2023/12/23 04:03:05;;;;;;;5.70;3.10;;;;;;;6.35;100.00;97566.33;109348;1253;73155;-67
2023/12/23 04:05:33;;;;;;;5.20;2.80;;;;;;;6.34;100.00;97570.09;109356;1253;61745;-66
2023/12/23 04:08:00;;;;;;;5.40;3.50;;;;;;;6.33;100.00;97573.16;109446;1253;59294;-66
2023/12/23 04:10:28;;;;;;;6.80;4.20;;;;;;;6.32;100.00;97573.45;109406;1253;74663;-66
2023/12/23 04:12:55;;;;;;;6.80;4.80;;;;;;;6.31;100.00;97572.55;109219;1256;65681;-65
2023/12/23 04:15:23;;;;;;;6.60;4.00;;;;;;;6.31;100.00;97570.95;109176;1253;72135;-66
2023/12/23 04:17:51;;;;;;;6.60;4.00;;;;;;;6.30;100.00;97579.50;109371;1252;61730;-66
2023/12/23 04:20:19;;;;;;;7.20;4.40;;;;;;;6.27;100.00;97575.44;109380;1253;60135;-66
2023/12/23 04:22:48;;;;;;;7.50;4.30;;;;;;;6.23;100.00;97572.08;109377;1253;74748;-65
2023/12/23 04:25:16;;;;;;;6.40;4.10;;;;;;;6.20;100.00;97569.73;109330;1253;66616;-65
2023/12/23 04:27:51;;;;;;;5.80;4.30;;;;;;;6.16;100.00;97570.82;109335;1253;71390;-65
2023/12/23 04:30:19;;;;;;;8.30;5.50;;;;;;;6.12;100.00;97569.52;109186;1253;59520;-65
2023/12/23 04:32:48;;;;;;;7.50;5.20;;;;;;;6.08;100.00;97570.52;109164;1253;58892;-66
2023/12/23 04:35:16;;;;;;;8.40;5.40;;;;;;;6.05;100.00;97569.88;109222;1253;73459;-65
2023/12/23 04:37:45;;;;;;;6.40;4.70;;;;;;;6.03;100.00;97570.15;109228;1253;66111;-65
2023/12/23 04:40:13;;;;;;;7.40;4.90;;;;;;;6.02;100.00;97573.27;109184;1253;72728;-65
2023/12/23 04:42:40;;;;;;;7.90;5.40;;;;;;;6.01;100.00;97570.85;109206;1253;59329;-65
2023/12/23 04:45:09;;;;;;;8.00;5.40;;;;;;;5.98;100.00;97572.13;109218;1253;58933;-65
2023/12/23 04:47:37;;;;;;;8.50;5.80;;;;;;;5.96;100.00;97573.11;109366;1253;74788;-65
2023/12/23 04:50:06;;;;;;;9.40;6.80;;;;;;;5.91;100.00;97574.79;109441;1252;65750;-65
2023/12/23 04:52:33;;;;;;;9.00;6.20;;;;;;;5.89;100.00;97576.31;109395;1253;72831;-65
2023/12/23 04:55:05;;;;;;;8.90;6.30;;;;;;;5.86;100.00;97581.95;109185;1253;61751;-64
2023/12/23 04:57:34;;;;;;;8.00;6.00;;;;;;;5.79;100.00;97582.80;109238;1253;59602;-65
2023/12/23 05:00:05;;;;;;;10.50;7.80;;;;;;;5.74;100.00;97578.99;109374;1253;74736;-65
2023/12/23 05:02:33;;;;;;;10.20;7.10;;;;;;;5.69;100.00;97576.34;109206;1253;66455;-65
2023/12/23 05:05:01;;;;;;;10.70;7.30;;;;;;;5.66;100.00;97582.88;109322;1253;71509;-66
2023/12/23 05:07:30;;;;;;;10.20;7.40;;;;;;;5.64;100.00;97582.13;109361;1256;61778;-65
2023/12/23 05:09:57;;;;;;;10.10;7.10;;;;;;;5.63;100.00;97582.67;109367;1253;60132;-65
2023/12/23 05:12:25;;;;;;;10.60;7.00;;;;;;;5.59;100.00;97578.34;109380;1253;72845;-65
2023/12/23 05:14:53;;;;;;;9.40;6.90;;;;;;;5.55;100.00;97579.49;109408;1253;65497;-65
2023/12/23 05:17:20;;;;;;;9.60;7.60;;;;;;;5.52;100.00;97575.48;109380;1253;72755;-65
2023/12/23 05:19:48;;;;;;;12.00;7.90;;;;;;;5.49;100.00;97575.75;109390;1253;59546;-65
2023/12/23 05:22:16;;;;;;;11.60;7.60;;;;;;;5.48;100.00;97573.94;109411;1252;59710;-65
2023/12/23 05:24:43;;;;;;;10.40;7.40;;;;;;;5.48;100.00;97570.34;109391;1253;73449;-64
2023/12/23 05:27:11;;;;;;;10.20;7.50;;;;;;;5.49;100.00;97570.40;109199;1252;66928;-66
2023/12/23 05:29:39;;;;;;;10.90;7.50;;;;;;;5.48;100.00;97572.45;109386;1253;71925;-65
2023/12/23 05:32:07;;;;;;;13.50;9.40;;;;;;;5.49;100.00;97566.21;109355;1252;59103;-65
2023/12/23 05:34:34;;;;;;;14.00;9.80;;;;;;;5.47;100.00;97558.80;109427;1253;60135;-64
2023/12/23 05:37:02;;;;;;;15.10;9.80;;;;;;;5.43;100.00;97555.75;109380;1252;75124;-65
2023/12/23 05:39:30;;;;;;;16.90;10.60;;;;;;;5.40;100.00;97552.72;109436;1252;67119;-64
2023/12/23 05:41:58;;;;;;;24.50;15.30;;;;;;;5.38;100.00;97550.16;109408;1253;70866;-64
2023/12/23 05:44:26;;;;;;;101.50;65.70;;;;;;;5.36;100.00;97549.81;109383;1253;60170;-64
2023/12/23 05:46:53;;;;;;;35.70;22.10;;;;;;;5.35;100.00;97549.33;109388;1253;60095;-64
2023/12/23 05:49:21;;;;;;;20.10;12.80;;;;;;;5.33;100.00;97555.30;109317;1253;74681;-64
2023/12/23 05:51:54;;;;;;;18.90;11.90;;;;;;;5.32;100.00;97559.73;109382;1252;65665;-64
2023/12/23 05:54:21;;;;;;;18.80;12.60;;;;;;;5.33;100.00;97563.71;109366;1253;72757;-64
2023/12/23 05:56:49;;;;;;;16.70;11.40;;;;;;;5.35;100.00;97570.61;109351;1253;60415;-64
2023/12/23 05:59:16;;;;;;;17.20;11.60;;;;;;;5.37;100.00;97575.40;109323;1253;59079;-64
2023/12/23 06:01:44;;;;;;;16.20;10.30;;;;;;;5.37;100.00;97581.45;109402;1253;74659;-64
2023/12/23 06:04:12;;;;;;;16.60;10.40;;;;;;;5.37;100.00;97587.66;109369;1251;67373;-64
2023/12/23 06:06:39;;;;;;;13.70;9.50;;;;;;;5.35;100.00;97589.50;109398;1253;71413;-64
2023/12/23 06:09:08;;;;;;;14.40;9.90;;;;;;;5.35;100.00;97592.25;109337;1253;59435;-64
2023/12/23 06:11:36;;;;;;;17.70;10.80;;;;;;;5.33;100.00;97596.63;109404;1253;58918;-64
2023/12/23 06:14:04;;;;;;;16.80;10.30;;;;;;;5.28;100.00;97602.92;109403;1252;72918;-64
2023/12/23 06:16:32;;;;;;;16.10;10.60;;;;;;;5.22;100.00;97606.23;109423;1252;65693;-64
2023/12/23 06:18:59;;;;;;;18.70;11.70;;;;;;;5.17;100.00;97607.66;109195;1253;71471;-64
2023/12/23 06:21:27;;;;;;;16.60;10.80;;;;;;;5.12;100.00;97605.38;109361;1253;62604;-64
2023/12/23 06:23:54;;;;;;;16.90;10.80;;;;;;;5.10;100.00;97608.45;109411;1253;60113;-64
2023/12/23 06:26:22;;;;;;;14.30;9.70;;;;;;;5.08;100.00;97608.52;109440;1253;73922;-64
2023/12/23 06:28:50;;;;;;;15.30;10.50;;;;;;;5.06;100.00;97598.88;109421;1253;66928;-64
2023/12/23 06:31:17;;;;;;;14.50;9.60;;;;;;;5.03;100.00;97605.25;109318;1253;72712;-64
2023/12/23 06:33:45;;;;;;;15.20;10.20;;;;;;;5.00;100.00;97611.75;109379;1253;62528;-64
2023/12/23 06:36:13;;;;;;;16.10;10.80;;;;;;;4.96;100.00;97614.26;109375;1257;59088;-64
2023/12/23 06:38:41;;;;;;;14.10;10.40;;;;;;;4.94;100.00;97615.02;109380;1252;73289;-64
2023/12/23 06:41:08;;;;;;;12.70;10.30;;;;;;;4.91;100.00;97617.31;109362;1252;65658;-65
2023/12/23 06:43:36;;;;;;;14.50;10.70;;;;;;;4.88;100.00;97618.88;109149;1253;70455;-64
2023/12/23 06:46:18;;;;;;;15.80;11.40;;;;;;;4.83;100.00;97620.39;109356;1253;60476;-63
2023/12/23 06:48:46;;;;;;;14.90;11.10;;;;;;;4.79;100.00;97615.81;109377;1253;58973;-65
2023/12/23 06:51:14;;;;;;;15.40;10.80;;;;;;;4.72;100.00;97612.92;109373;1252;73474;-64
2023/12/23 06:53:41;;;;;;;15.00;10.80;;;;;;;4.68;100.00;97615.27;109367;1253;66121;-64
2023/12/23 06:56:11;;;;;;;13.00;9.80;;;;;;;4.66;100.00;97613.02;109406;1253;71457;-63
2023/12/23 06:58:38;;;;;;;15.50;11.40;;;;;;;4.62;100.00;97605.34;109351;1253;60287;-63
2023/12/23 07:01:06;;;;;;;14.50;9.80;;;;;;;4.60;100.00;97600.87;109112;1253;58996;-63
2023/12/23 07:03:34;;;;;;;12.40;9.10;;;;;;;4.60;100.00;97596.27;109400;1253;73452;-62
2023/12/23 07:06:03;;;;;;;11.30;8.90;;;;;;;4.59;100.00;97598.59;109419;1253;65762;-63
2023/12/23 07:08:30;;;;;;;13.40;9.20;;;;;;;4.59;100.00;97605.29;109383;1253;72737;-63
2023/12/23 07:10:58;;;;;;;11.30;8.70;;;;;;;4.59;100.00;97609.46;109343;1252;59275;-64
2023/12/23 07:13:26;;;;;;;12.60;8.80;;;;;;;4.59;100.00;97610.25;109403;1253;60079;-63
2023/12/23 07:15:54;;;;;;;14.00;9.80;;;;;;;4.61;100.00;97615.81;109385;1252;74642;-63
2023/12/23 07:18:22;;;;;;;12.30;9.00;;;;;;;4.63;100.00;97613.00;109208;1253;65647;-63
2023/12/23 07:20:51;;;;;;;12.30;8.80;;;;;;;4.67;100.00;97611.26;109395;1253;72750;-63
2023/12/23 07:23:18;;;;;;;13.40;9.40;;;;;;;4.72;100.00;97613.26;109366;1253;59378;-63
2023/12/23 07:25:46;;;;;;;13.30;9.20;;;;;;;4.77;100.00;97616.08;109401;1253;59156;-63
2023/12/23 07:28:13;;;;;;;11.20;8.80;;;;;;;4.82;100.00;97617.82;109412;1253;76766;-62
2023/12/23 07:30:44;;;;;;;10.80;7.60;;;;;;;4.88;100.00;97616.46;109395;1252;66978;-63
2023/12/23 07:33:13;;;;;;;10.00;6.90;;;;;;;4.90;100.00;97619.35;109374;1251;71468;-62
2023/12/23 07:35:41;;;;;;;8.80;6.90;;;;;;;4.90;100.00;97618.44;109352;1253;60464;-62
2023/12/23 07:38:08;;;;;;;10.80;7.00;;;;;;;4.88;100.00;97619.16;109444;1253;59422;-62
2023/12/23 07:40:36;;;;;;;9.50;6.80;;;;;;;4.86;100.00;97615.52;109382;1253;74759;-63
2023/12/23 07:43:04;;;;;;;9.60;6.50;;;;;;;4.84;100.00;97616.85;109316;1253;67143;-64
2023/12/23 07:45:31;;;;;;;9.00;6.40;;;;;;;4.80;100.00;97624.59;109360;1253;71969;-62
2023/12/23 07:47:59;;;;;;;9.00;6.50;;;;;;;4.76;100.00;97626.20;109437;1251;59153;-63
2023/12/23 07:50:27;;;;;;;9.40;6.00;;;;;;;4.75;100.00;97626.65;109429;1252;60506;-62
2023/12/23 07:52:55;;;;;;;8.90;6.40;;;;;;;4.72;100.00;97628.25;109134;1257;199240;-63
2023/12/23 07:55:22;;;;;;;11.00;7.00;;;;;;;4.72;100.00;97635.29;109405;1253;69102;-62
2023/12/23 07:57:50;;;;;;;10.50;7.50;;;;;;;4.69;100.00;97644.60;109370;1253;71327;-63
2023/12/23 08:00:18;;;;;;;12.60;8.60;;;;;;;4.64;100.00;97654.46;109377;1253;61932;-62
2023/12/23 08:02:45;;;;;;;11.50;8.40;;;;;;;4.62;100.00;97660.76;109413;1252;58959;-63
2023/12/23 08:05:13;;;;;;;10.40;6.60;;;;;;;4.63;100.00;97656.15;109384;1253;74676;-62
2023/12/23 08:07:43;;;;;;;12.30;8.30;;;;;;;4.65;100.00;97655.73;109383;1253;67075;-62
2023/12/23 08:10:11;;;;;;;12.60;7.90;;;;;;;4.71;100.00;97657.92;109375;1253;72739;-62
2023/12/23 08:12:39;;;;;;;11.10;7.70;;;;;;;4.74;100.00;97657.77;109378;1253;59247;-63
2023/12/23 08:15:07;;;;;;;10.60;7.30;;;;;;;4.78;100.00;97661.71;109329;1253;59939;-63
2023/12/23 08:17:34;;;;;;;9.60;5.50;;;;;;;4.82;100.00;97664.13;109378;1253;73462;-62
2023/12/23 08:20:02;;;;;;;7.60;5.40;;;;;;;4.84;100.00;97663.35;109403;1253;66982;-64
2023/12/23 08:22:30;;;;;;;8.50;5.20;;;;;;;4.82;100.00;97665.94;109419;1253;72826;-64
2023/12/23 08:24:58;;;;;;;7.30;5.30;;;;;;;4.80;100.00;97678.30;109337;1253;61759;-64
2023/12/23 08:27:25;;;;;;;8.00;4.50;;;;;;;4.79;100.00;97682.45;109370;1253;58913;-64
2023/12/23 08:29:53;;;;;;;7.50;5.20;;;;;;;4.77;100.00;97677.02;109356;1253;74758;-64
2023/12/23 08:32:20;;;;;;;6.90;4.60;;;;;;;4.72;100.00;97672.96;109406;1252;65775;-62
2023/12/23 08:34:48;;;;;;;7.00;4.80;;;;;;;4.63;100.00;97679.45;109393;1253;71379;-63
2023/12/23 08:37:16;;;;;;;8.00;4.90;;;;;;;4.57;100.00;97684.68;109357;1254;61746;-63
2023/12/23 08:39:44;;;;;;;8.70;4.80;;;;;;;4.53;100.00;97686.34;109434;1253;59059;-62
2023/12/23 08:42:11;;;;;;;7.00;4.90;;;;;;;4.50;100.00;97688.05;109398;1253;74727;-62
2023/12/23 08:44:42;;;;;;;7.40;5.00;;;;;;;4.46;100.00;97685.65;109368;1253;65666;-62
2023/12/23 08:47:23;;;;;;;7.00;4.80;;;;;;;4.46;100.00;97683.63;108887;1258;72731;-62
2023/12/23 08:49:51;;;;;;;7.70;4.90;;;;;;;4.44;100.00;97683.64;108873;1258;60399;-62
2023/12/23 08:52:18;;;;;;;9.10;5.10;;;;;;;4.43;100.00;97681.61;108854;1258;60329;-63
2023/12/23 08:54:46;;;;;;;6.70;4.60;;;;;;;4.42;100.00;97679.92;108884;1259;73107;-64
2023/12/23 08:57:14;;;;;;;5.90;4.30;;;;;;;4.39;100.00;97687.31;109247;1253;67082;-62
2023/12/23 08:59:41;;;;;;;7.30;4.50;;;;;;;4.37;100.00;97685.10;109365;1253;71914;-62
2023/12/23 09:02:09;;;;;;;6.60;4.10;;;;;;;4.34;100.00;97678.45;109356;1253;60942;-63
2023/12/23 09:04:36;;;;;;;7.60;4.40;;;;;;;4.31;100.00;97671.41;109402;1254;59043;-63
2023/12/23 09:07:04;;;;;;;7.10;4.70;;;;;;;4.25;100.00;97670.96;109345;1253;74657;-63
2023/12/23 09:09:32;;;;;;;7.60;4.30;;;;;;;4.24;100.00;97672.11;109439;1252;66192;-62
2023/12/23 09:11:59;;;;;;;5.40;3.60;;;;;;;4.25;100.00;97670.13;109382;1254;72749;-63
2023/12/23 09:14:27;;;;;;;5.70;3.30;;;;;;;4.24;100.00;97666.40;109427;1254;59568;-63
2023/12/23 09:16:55;;;;;;;7.00;4.00;;;;;;;4.26;100.00;97657.08;109399;1254;60128;-65
2023/12/23 09:19:22;;;;;;;8.20;4.00;;;;;;;4.28;100.00;97658.33;109389;1253;74711;-63
2023/12/23 09:21:50;;;;;;;6.50;4.00;;;;;;;4.31;100.00;97664.14;109420;1256;66850;-62
2023/12/23 09:24:17;;;;;;;5.70;3.50;;;;;;;4.35;100.00;97666.19;109417;1253;72755;-62
2023/12/23 09:26:45;;;;;;;6.20;3.80;;;;;;;4.41;100.00;97670.40;109378;1257;59005;-62
2023/12/23 09:29:13;;;;;;;6.90;4.20;;;;;;;4.43;100.00;97673.40;109391;1253;59391;-61
2023/12/23 09:31:40;;;;;;;6.10;3.40;;;;;;;4.44;100.00;97670.77;109415;1252;73400;-61
2023/12/23 09:34:08;;;;;;;5.80;3.30;;;;;;;4.46;100.00;97669.10;109483;1252;65768;-61
2023/12/23 09:36:36;;;;;;;7.20;3.80;;;;;;;4.50;100.00;97674.08;109383;1253;72833;-62
2023/12/23 09:39:04;;;;;;;6.20;4.00;;;;;;;4.53;100.00;97672.67;109364;1253;59795;-62
2023/12/23 09:41:32;;;;;;;6.10;3.40;;;;;;;4.58;100.00;97678.16;109406;1253;60313;-61
2023/12/23 09:43:59;;;;;;;6.50;3.50;;;;;;;4.61;100.00;97680.60;109413;1252;74816;-61
2023/12/23 09:46:27;;;;;;;6.30;4.10;;;;;;;4.63;100.00;97671.67;109339;1254;67038;-61
2023/12/23 09:48:55;;;;;;;7.00;3.90;;;;;;;4.64;100.00;97670.83;109348;1253;71747;-61
2023/12/23 09:51:24;;;;;;;7.60;4.40;;;;;;;4.69;100.00;97668.89;109406;1253;59016;-60
2023/12/23 09:53:51;;;;;;;7.70;5.00;;;;;;;4.70;100.00;97669.23;109334;1254;59196;-61
2023/12/23 09:56:19;;;;;;;8.30;5.00;;;;;;;4.67;100.00;97670.14;109224;1254;73937;-62
2023/12/23 09:58:48;;;;;;;9.40;5.40;;;;;;;4.69;100.00;97668.69;109254;1253;67750;-61
2023/12/23 10:01:15;;;;;;;8.10;4.70;;;;;;;4.70;100.00;97667.61;109361;1254;71870;-61
2023/12/23 10:03:43;;;;;;;8.90;5.10;;;;;;;4.70;100.00;97666.50;109393;1256;59009;-61
2023/12/23 10:06:13;;;;;;;6.70;4.30;;;;;;;4.73;100.00;97670.23;109405;1253;59043;-61
2023/12/23 10:08:43;;;;;;;8.10;4.90;;;;;;;4.77;100.00;97670.66;109343;1255;73452;-61
2023/12/23 10:11:11;;;;;;;6.20;4.10;;;;;;;4.80;100.00;97668.89;109434;1254;65656;-61
2023/12/23 10:13:39;;;;;;;7.40;5.00;;;;;;;4.79;100.00;97667.20;109380;1252;71432;-61
2023/12/23 10:16:08;;;;;;;7.80;4.80;;;;;;;4.77;100.00;97673.33;109358;1253;58929;-61
2023/12/23 10:18:36;;;;;;;9.10;5.30;;;;;;;4.75;100.00;97677.63;109367;1253;60186;-62
2023/12/23 10:21:04;;;;;;;7.10;4.40;;;;;;;4.73;100.00;97674.86;109337;1252;74720;-61
2023/12/23 10:23:32;;;;;;;6.70;3.90;;;;;;;4.70;100.00;97673.16;109425;1253;67532;-61
2023/12/23 10:26:01;;;;;;;9.10;4.60;;;;;;;4.65;100.00;97674.11;109423;1253;71465;-61
2023/12/23 10:28:29;;;;;;;8.40;5.80;;;;;;;4.62;100.00;97671.98;109368;1253;58982;-60
2023/12/23 10:31:01;;;;;;;9.60;5.30;;;;;;;4.63;100.00;97669.36;109349;1254;59361;-61
2023/12/23 10:33:30;;;;;;;9.70;5.60;;;;;;;4.68;100.00;97665.84;109370;1252;74720;-61
2023/12/23 10:35:58;;;;;;;7.40;4.60;;;;;;;4.73;100.00;97672.20;109387;1253;66940;-60
2023/12/23 10:38:26;;;;;;;10.80;4.90;;;;;;;4.77;100.00;97671.85;109380;1252;71477;-60
2023/12/23 10:40:59;;;;;;;11.70;5.10;;;;;;;4.82;100.00;97674.27;109333;1253;59371;-61
2023/12/23 10:43:27;;;;;;;8.40;5.00;;;;;;;4.86;100.00;97679.58;109258;1253;59116;-60
2023/12/23 10:45:54;;;;;;;8.10;4.90;;;;;;;4.87;100.00;97678.93;109339;1252;73787;-60
2023/12/23 10:48:22;;;;;;;9.10;5.20;;;;;;;4.84;100.00;97674.73;109256;1252;67213;-60
2023/12/23 10:50:49;;;;;;;10.20;4.90;;;;;;;4.82;100.00;97678.73;109184;1251;72762;-63
2023/12/23 10:53:17;;;;;;;9.40;4.80;;;;;;;4.80;100.00;97684.34;109162;1254;59437;-60
2023/12/23 10:55:45;;;;;;;7.40;5.10;;;;;;;4.77;100.00;97683.09;109351;1254;60031;-60
2023/12/23 10:58:13;;;;;;;8.20;4.80;;;;;;;4.71;100.00;97686.66;109270;1253;74865;-60
2023/12/23 11:00:42;;;;;;;9.10;5.90;;;;;;;4.66;100.00;97682.45;109343;1253;65984;-61
2023/12/23 11:03:10;;;;;;;9.20;4.70;;;;;;;4.62;100.00;97678.10;109356;1254;72719;-60
2023/12/23 11:05:38;;;;;;;8.20;5.20;;;;;;;4.61;100.00;97682.23;109347;1253;59357;-60
2023/12/23 11:08:08;;;;;;;7.80;4.80;;;;;;;4.57;100.00;97683.77;109352;1253;60142;-60
2023/12/23 11:10:44;;;;;;;9.30;4.70;;;;;;;4.57;100.00;97683.33;109263;1252;74700;-61
2023/12/23 11:13:13;;;;;;;9.00;5.40;;;;;;;4.57;100.00;97677.54;109321;1253;65779;-60
2023/12/23 11:15:42;;;;;;;7.90;5.00;;;;;;;4.57;100.00;97679.13;109410;1252;72667;-60
2023/12/23 11:18:10;;;;;;;9.10;4.70;;;;;;;4.57;100.00;97676.73;109317;1252;61008;-60
2023/12/23 11:20:41;;;;;;;10.30;5.70;;;;;;;4.55;100.00;97674.45;109306;1253;58996;-60
2023/12/23 11:23:28;;;;;;;8.40;4.60;;;;;;;4.57;100.00;97679.56;109358;1253;73464;-61